Veuillez saisir l'adresse e-mail associée à votre compte d'utilisateur. Un code de vérification vous sera adressé. Lorsque vous le recevrez, vous pourrez choisir un nouveau mot de passe

METAR TAF

[Source: ADDS]
METAR
LFCR 271500Z AUTO 14005KT 110V200 CAVOK 18/05 Q1021 NOSIG =
LFCR 271100Z 2712/2812 12008KT CAVOK TEMPO 2810/2812 13015G25KT LFBA 271500Z AUTO 11005KT 090V150 CAVOK 17/09 Q1021 NOSIG =
LFBA 271400Z 2715/2724 12006KT CAVOK PROB30 2721/2724 MIFG LFSL 271500Z AUTO 11005KT 080V150 CAVOK 18/07 Q1021 NOSIG =
LFSL 271400Z 2715/2724 16004KT CAVOK LFLW 271500Z AUTO 14005KT 100V180 CAVOK 16/07 Q1022 NOSIG =
LFLW 271400Z 2715/2724 14006KT CAVOK
TAF
LFCR 271100Z 2712/2812 12008KT CAVOK TEMPO 2810/2812 13015G25KT =
LFBA 271400Z 2715/2724 12006KT CAVOK PROB30 2721/2724 MIFG =
LFSL 271400Z 2715/2724 16004KT CAVOK =
LFLW 271400Z 2715/2724 14006KT CAVOK =
SR / SS: 06:25 / 16:50 UTC (LFCC 2021-10-27)